sensor_id;sensor_type;location;lat;lon;timestamp;temperature;humidity
37281;DHT22;23169;41.804;12.596;2022-12-18T00:01:05;12.90;99.90
37281;DHT22;23169;41.804;12.596;2022-12-18T00:03:33;12.90;99.90
37281;DHT22;23169;41.804;12.596;2022-12-18T00:06:01;12.90;99.90
37281;DHT22;23169;41.804;12.596;2022-12-18T00:08:30;12.90;99.90
37281;DHT22;23169;41.804;12.596;2022-12-18T00:11:03;12.90;99.90
37281;DHT22;23169;41.804;12.596;2022-12-18T00:13:30;12.90;99.90
37281;DHT22;23169;41.804;12.596;2022-12-18T00:16:02;12.90;99.90
37281;DHT22;23169;41.804;12.596;2022-12-18T00:18:30;13.00;99.90
37281;DHT22;23169;41.804;12.596;2022-12-18T00:21:01;13.00;99.90
37281;DHT22;23169;41.804;12.596;2022-12-18T00:23:29;12.90;99.90
37281;DHT22;23169;41.804;12.596;2022-12-18T00:26:00;12.90;99.90
37281;DHT22;23169;41.804;12.596;2022-12-18T00:28:28;12.90;99.90
37281;DHT22;23169;41.804;12.596;2022-12-18T00:31:29;12.90;99.90
37281;DHT22;23169;41.804;12.596;2022-12-18T00:33:49;12.90;99.90
37281;DHT22;23169;41.804;12.596;2022-12-18T00:36:18;12.90;99.90
37281;DHT22;23169;41.804;12.596;2022-12-18T00:38:46;12.90;99.90
37281;DHT22;23169;41.804;12.596;2022-12-18T00:41:14;12.90;99.90
37281;DHT22;23169;41.804;12.596;2022-12-18T00:44:01;12.90;99.90
37281;DHT22;23169;41.804;12.596;2022-12-18T00:46:29;12.90;99.90
37281;DHT22;23169;41.804;12.596;2022-12-18T00:48:56;12.90;99.90
37281;DHT22;23169;41.804;12.596;2022-12-18T00:51:25;12.90;99.90
37281;DHT22;23169;41.804;12.596;2022-12-18T00:53:53;12.90;99.90
37281;DHT22;23169;41.804;12.596;2022-12-18T00:56:20;12.80;99.90
37281;DHT22;23169;41.804;12.596;2022-12-18T00:58:48;12.90;99.90
37281;DHT22;23169;41.804;12.596;2022-12-18T01:01:15;12.80;99.90
37281;DHT22;23169;41.804;12.596;2022-12-18T01:03:42;12.80;1.00
37281;DHT22;23169;41.804;12.596;2022-12-18T01:06:15;12.80;1.00
37281;DHT22;23169;41.804;12.596;2022-12-18T01:08:43;12.80;1.00
37281;DHT22;23169;41.804;12.596;2022-12-18T01:11:11;12.80;1.00
37281;DHT22;23169;41.804;12.596;2022-12-18T01:13:39;12.80;99.90
37281;DHT22;23169;41.804;12.596;2022-12-18T01:16:06;12.80;99.90
37281;DHT22;23169;41.804;12.596;2022-12-18T01:18:35;12.80;99.90
37281;DHT22;23169;41.804;12.596;2022-12-18T01:21:09;12.80;99.90
37281;DHT22;23169;41.804;12.596;2022-12-18T01:23:37;12.80;99.90
37281;DHT22;23169;41.804;12.596;2022-12-18T01:26:08;12.70;99.90
37281;DHT22;23169;41.804;12.596;2022-12-18T01:28:37;12.70;1.00
37281;DHT22;23169;41.804;12.596;2022-12-18T01:33:37;12.70;1.00
37281;DHT22;23169;41.804;12.596;2022-12-18T01:36:04;12.70;1.00
37281;DHT22;23169;41.804;12.596;2022-12-18T01:38:32;12.70;1.00
37281;DHT22;23169;41.804;12.596;2022-12-18T01:41:00;12.80;1.00
37281;DHT22;23169;41.804;12.596;2022-12-18T01:46:50;12.70;1.00
37281;DHT22;23169;41.804;12.596;2022-12-18T01:49:17;12.70;1.00
37281;DHT22;23169;41.804;12.596;2022-12-18T01:51:44;12.60;99.90
37281;DHT22;23169;41.804;12.596;2022-12-18T01:54:13;12.50;1.00
37281;DHT22;23169;41.804;12.596;2022-12-18T01:56:40;12.50;1.00
37281;DHT22;23169;41.804;12.596;2022-12-18T01:59:08;12.40;99.90
37281;DHT22;23169;41.804;12.596;2022-12-18T02:01:40;12.30;1.00
37281;DHT22;23169;41.804;12.596;2022-12-18T02:04:18;12.30;1.00
37281;DHT22;23169;41.804;12.596;2022-12-18T02:06:46;12.30;1.00
37281;DHT22;23169;41.804;12.596;2022-12-18T02:09:20;12.20;1.00
37281;DHT22;23169;41.804;12.596;2022-12-18T02:11:54;12.10;1.00
37281;DHT22;23169;41.804;12.596;2022-12-18T02:14:29;12.10;1.00
37281;DHT22;23169;41.804;12.596;2022-12-18T02:17:07;12.10;1.00
37281;DHT22;23169;41.804;12.596;2022-12-18T02:19:47;12.00;1.00
37281;DHT22;23169;41.804;12.596;2022-12-18T02:27:19;12.00;1.00
37281;DHT22;23169;41.804;12.596;2022-12-18T02:29:55;12.00;99.90
37281;DHT22;23169;41.804;12.596;2022-12-18T02:32:25;11.90;99.90
37281;DHT22;23169;41.804;12.596;2022-12-18T02:34:59;11.80;99.90
37281;DHT22;23169;41.804;12.596;2022-12-18T02:37:26;11.90;1.00
37281;DHT22;23169;41.804;12.596;2022-12-18T02:39:55;11.90;1.00
37281;DHT22;23169;41.804;12.596;2022-12-18T02:42:24;11.90;1.00
37281;DHT22;23169;41.804;12.596;2022-12-18T02:44:52;11.90;1.00
37281;DHT22;23169;41.804;12.596;2022-12-18T02:47:23;11.90;99.90
37281;DHT22;23169;41.804;12.596;2022-12-18T02:55:24;11.90;99.90
37281;DHT22;23169;41.804;12.596;2022-12-18T02:57:58;11.90;99.90
37281;DHT22;23169;41.804;12.596;2022-12-18T03:03:05;11.80;99.90
37281;DHT22;23169;41.804;12.596;2022-12-18T03:05:36;11.80;99.90
37281;DHT22;23169;41.804;12.596;2022-12-18T03:08:07;11.80;99.90
37281;DHT22;23169;41.804;12.596;2022-12-18T03:10:38;11.80;99.90
37281;DHT22;23169;41.804;12.596;2022-12-18T03:13:23;11.80;99.90
37281;DHT22;23169;41.804;12.596;2022-12-18T03:15:55;11.80;99.90
37281;DHT22;23169;41.804;12.596;2022-12-18T03:18:25;11.80;99.90
37281;DHT22;23169;41.804;12.596;2022-12-18T03:20:53;11.80;99.90
37281;DHT22;23169;41.804;12.596;2022-12-18T03:23:24;11.80;99.90
37281;DHT22;23169;41.804;12.596;2022-12-18T03:25:56;11.80;99.90
37281;DHT22;23169;41.804;12.596;2022-12-18T03:28:44;11.80;99.90
37281;DHT22;23169;41.804;12.596;2022-12-18T03:31:31;11.80;99.90
37281;DHT22;23169;41.804;12.596;2022-12-18T03:34:09;11.90;99.90
37281;DHT22;23169;41.804;12.596;2022-12-18T03:36:39;11.80;99.90
37281;DHT22;23169;41.804;12.596;2022-12-18T03:39:07;11.80;99.90
37281;DHT22;23169;41.804;12.596;2022-12-18T03:41:44;11.80;99.90
37281;DHT22;23169;41.804;12.596;2022-12-18T03:44:13;11.80;99.90
37281;DHT22;23169;41.804;12.596;2022-12-18T03:46:46;11.80;99.90
37281;DHT22;23169;41.804;12.596;2022-12-18T03:51:46;11.80;99.90
37281;DHT22;23169;41.804;12.596;2022-12-18T03:54:15;11.80;99.90
37281;DHT22;23169;41.804;12.596;2022-12-18T03:56:47;11.80;99.90
37281;DHT22;23169;41.804;12.596;2022-12-18T03:59:15;11.80;99.90
37281;DHT22;23169;41.804;12.596;2022-12-18T04:01:47;11.80;99.90
37281;DHT22;23169;41.804;12.596;2022-12-18T04:04:16;11.80;99.90
37281;DHT22;23169;41.804;12.596;2022-12-18T04:06:45;11.80;99.90
37281;DHT22;23169;41.804;12.596;2022-12-18T04:09:13;11.80;99.90
37281;DHT22;23169;41.804;12.596;2022-12-18T04:11:42;11.80;99.90
37281;DHT22;23169;41.804;12.596;2022-12-18T04:14:10;11.80;99.90
37281;DHT22;23169;41.804;12.596;2022-12-18T04:16:38;11.80;99.90
37281;DHT22;23169;41.804;12.596;2022-12-18T04:19:05;11.80;99.90
37281;DHT22;23169;41.804;12.596;2022-12-18T04:21:32;11.90;99.90
37281;DHT22;23169;41.804;12.596;2022-12-18T04:24:00;11.90;99.90
37281;DHT22;23169;41.804;12.596;2022-12-18T04:26:27;11.80;99.90
37281;DHT22;23169;41.804;12.596;2022-12-18T04:28:54;11.90;97.60
37281;DHT22;23169;41.804;12.596;2022-12-18T04:31:21;11.90;82.60
37281;DHT22;23169;41.804;12.596;2022-12-18T04:33:49;11.90;70.50
37281;DHT22;23169;41.804;12.596;2022-12-18T04:36:16;11.90;66.40
37281;DHT22;23169;41.804;12.596;2022-12-18T04:38:44;11.90;72.90
37281;DHT22;23169;41.804;12.596;2022-12-18T04:41:11;11.90;63.90
37281;DHT22;23169;41.804;12.596;2022-12-18T04:43:41;11.90;65.30
37281;DHT22;23169;41.804;12.596;2022-12-18T04:46:09;11.90;56.70
37281;DHT22;23169;41.804;12.596;2022-12-18T04:48:37;11.90;49.10
37281;DHT22;23169;41.804;12.596;2022-12-18T04:51:04;11.90;57.30
37281;DHT22;23169;41.804;12.596;2022-12-18T04:53:32;11.90;54.70
37281;DHT22;23169;41.804;12.596;2022-12-18T04:56:06;11.80;38.00
37281;DHT22;23169;41.804;12.596;2022-12-18T04:58:35;11.80;39.20
37281;DHT22;23169;41.804;12.596;2022-12-18T05:01:02;11.80;29.60
37281;DHT22;23169;41.804;12.596;2022-12-18T05:03:30;11.80;21.00
37281;DHT22;23169;41.804;12.596;2022-12-18T05:05:57;11.80;16.10
37281;DHT22;23169;41.804;12.596;2022-12-18T05:08:24;11.80;10.90
37281;DHT22;23169;41.804;12.596;2022-12-18T05:11:02;11.80;1.00
37281;DHT22;23169;41.804;12.596;2022-12-18T05:13:30;11.80;1.00
37281;DHT22;23169;41.804;12.596;2022-12-18T05:15:57;11.80;1.00
37281;DHT22;23169;41.804;12.596;2022-12-18T05:18:25;11.80;1.00
37281;DHT22;23169;41.804;12.596;2022-12-18T05:20:52;11.80;1.00
37281;DHT22;23169;41.804;12.596;2022-12-18T05:23:20;10.20;1.00
37281;DHT22;23169;41.804;12.596;2022-12-18T05:25:51;14.20;1.00
37281;DHT22;23169;41.804;12.596;2022-12-18T05:28:19;11.80;1.00
37281;DHT22;23169;41.804;12.596;2022-12-18T05:30:53;11.80;1.00
37281;DHT22;23169;41.804;12.596;2022-12-18T05:33:20;11.80;1.00
37281;DHT22;23169;41.804;12.596;2022-12-18T05:35:52;11.80;1.00
37281;DHT22;23169;41.804;12.596;2022-12-18T05:38:20;11.80;1.00
37281;DHT22;23169;41.804;12.596;2022-12-18T05:40:48;11.70;1.00
37281;DHT22;23169;41.804;12.596;2022-12-18T05:43:15;11.60;1.00
37281;DHT22;23169;41.804;12.596;2022-12-18T05:45:43;11.60;2.90
37281;DHT22;23169;41.804;12.596;2022-12-18T05:48:12;11.40;5.00
37281;DHT22;23169;41.804;12.596;2022-12-18T05:50:40;11.30;19.20
37281;DHT22;23169;41.804;12.596;2022-12-18T05:53:09;11.20;64.10
37281;DHT22;23169;41.804;12.596;2022-12-18T05:55:37;11.10;98.00
37281;DHT22;23169;41.804;12.596;2022-12-18T05:58:06;11.00;99.90
37281;DHT22;23169;41.804;12.596;2022-12-18T06:00:34;11.00;99.90
37281;DHT22;23169;41.804;12.596;2022-12-18T06:03:02;10.90;99.90
37281;DHT22;23169;41.804;12.596;2022-12-18T06:05:34;10.90;99.90
37281;DHT22;23169;41.804;12.596;2022-12-18T06:08:03;11.00;99.90
37281;DHT22;23169;41.804;12.596;2022-12-18T06:10:31;11.00;99.90
37281;DHT22;23169;41.804;12.596;2022-12-18T06:12:58;11.00;99.90
37281;DHT22;23169;41.804;12.596;2022-12-18T06:15:25;10.90;99.90
37281;DHT22;23169;41.804;12.596;2022-12-18T06:17:52;10.80;99.90
37281;DHT22;23169;41.804;12.596;2022-12-18T06:20:20;10.70;99.90
37281;DHT22;23169;41.804;12.596;2022-12-18T06:22:47;10.70;99.90
37281;DHT22;23169;41.804;12.596;2022-12-18T06:25:16;10.80;99.90
37281;DHT22;23169;41.804;12.596;2022-12-18T06:27:44;10.80;99.90
37281;DHT22;23169;41.804;12.596;2022-12-18T06:30:11;10.80;99.90
37281;DHT22;23169;41.804;12.596;2022-12-18T06:32:39;10.80;99.90
37281;DHT22;23169;41.804;12.596;2022-12-18T06:35:06;10.80;99.90
37281;DHT22;23169;41.804;12.596;2022-12-18T06:37:33;10.80;99.90
37281;DHT22;23169;41.804;12.596;2022-12-18T06:40:00;10.90;99.90
37281;DHT22;23169;41.804;12.596;2022-12-18T06:42:28;10.90;99.90
37281;DHT22;23169;41.804;12.596;2022-12-18T06:44:56;11.00;99.90
37281;DHT22;23169;41.804;12.596;2022-12-18T06:47:27;10.90;99.90
37281;DHT22;23169;41.804;12.596;2022-12-18T06:49:54;10.90;99.90
37281;DHT22;23169;41.804;12.596;2022-12-18T06:52:21;10.90;99.90
37281;DHT22;23169;41.804;12.596;2022-12-18T06:54:49;11.00;99.90
37281;DHT22;23169;41.804;12.596;2022-12-18T06:57:16;11.00;99.90
37281;DHT22;23169;41.804;12.596;2022-12-18T06:59:43;11.10;99.90
37281;DHT22;23169;41.804;12.596;2022-12-18T07:02:11;11.10;99.90
37281;DHT22;23169;41.804;12.596;2022-12-18T07:04:39;11.10;99.90
37281;DHT22;23169;41.804;12.596;2022-12-18T07:07:06;11.10;96.10
37281;DHT22;23169;41.804;12.596;2022-12-18T07:09:33;11.10;99.90
37281;DHT22;23169;41.804;12.596;2022-12-18T07:12:00;11.00;99.90
37281;DHT22;23169;41.804;12.596;2022-12-18T07:14:28;10.90;99.90
37281;DHT22;23169;41.804;12.596;2022-12-18T07:16:55;10.90;99.90
37281;DHT22;23169;41.804;12.596;2022-12-18T07:19:22;10.80;1.00
37281;DHT22;23169;41.804;12.596;2022-12-18T07:21:52;10.80;1.00
37281;DHT22;23169;41.804;12.596;2022-12-18T07:24:19;10.80;1.00
37281;DHT22;23169;41.804;12.596;2022-12-18T07:26:47;10.90;56.10
37281;DHT22;23169;41.804;12.596;2022-12-18T07:29:14;10.90;17.70
37281;DHT22;23169;41.804;12.596;2022-12-18T07:31:41;10.90;1.00
37281;DHT22;23169;41.804;12.596;2022-12-18T07:34:10;10.90;35.40
37281;DHT22;23169;41.804;12.596;2022-12-18T07:36:38;10.90;12.30
37281;DHT22;23169;41.804;12.596;2022-12-18T07:39:05;11.00;99.90
37281;DHT22;23169;41.804;12.596;2022-12-18T07:41:32;11.00;99.90
37281;DHT22;23169;41.804;12.596;2022-12-18T07:44:00;10.90;50.40
37281;DHT22;23169;41.804;12.596;2022-12-18T07:46:27;10.90;59.80
37281;DHT22;23169;41.804;12.596;2022-12-18T07:48:55;11.00;45.20
37281;DHT22;23169;41.804;12.596;2022-12-18T07:51:22;11.00;14.00
37281;DHT22;23169;41.804;12.596;2022-12-18T07:53:49;11.00;2.50
37281;DHT22;23169;41.804;12.596;2022-12-18T07:56:16;11.00;22.70
37281;DHT22;23169;41.804;12.596;2022-12-18T07:58:44;11.10;2.60
37281;DHT22;23169;41.804;12.596;2022-12-18T08:01:14;11.10;1.00
37281;DHT22;23169;41.804;12.596;2022-12-18T08:03:41;11.10;1.00
37281;DHT22;23169;41.804;12.596;2022-12-18T08:06:09;11.10;1.00
37281;DHT22;23169;41.804;12.596;2022-12-18T08:08:37;11.20;1.00
37281;DHT22;23169;41.804;12.596;2022-12-18T08:11:04;11.20;1.00
37281;DHT22;23169;41.804;12.596;2022-12-18T08:13:31;11.30;1.00
37281;DHT22;23169;41.804;12.596;2022-12-18T08:15:59;11.30;1.00
37281;DHT22;23169;41.804;12.596;2022-12-18T08:18:27;11.40;1.00
37281;DHT22;23169;41.804;12.596;2022-12-18T08:20:55;11.50;1.00
37281;DHT22;23169;41.804;12.596;2022-12-18T08:23:22;11.50;1.00
37281;DHT22;23169;41.804;12.596;2022-12-18T08:25:49;11.50;99.90
37281;DHT22;23169;41.804;12.596;2022-12-18T08:28:17;11.60;1.00
37281;DHT22;23169;41.804;12.596;2022-12-18T08:30:45;11.60;99.90
37281;DHT22;23169;41.804;12.596;2022-12-18T08:33:12;11.70;99.90
37281;DHT22;23169;41.804;12.596;2022-12-18T08:35:40;11.80;99.90
37281;DHT22;23169;41.804;12.596;2022-12-18T08:38:07;11.80;99.90
37281;DHT22;23169;41.804;12.596;2022-12-18T08:40:34;11.80;99.90
37281;DHT22;23169;41.804;12.596;2022-12-18T08:43:01;11.90;99.90
37281;DHT22;23169;41.804;12.596;2022-12-18T08:45:47;11.90;99.90
37281;DHT22;23169;41.804;12.596;2022-12-18T08:48:15;12.00;99.90
37281;DHT22;23169;41.804;12.596;2022-12-18T08:50:42;12.10;99.90
37281;DHT22;23169;41.804;12.596;2022-12-18T08:53:09;12.10;99.90
37281;DHT22;23169;41.804;12.596;2022-12-18T08:55:36;12.20;99.90
37281;DHT22;23169;41.804;12.596;2022-12-18T08:58:04;12.30;99.90
37281;DHT22;23169;41.804;12.596;2022-12-18T09:00:31;12.40;99.90
37281;DHT22;23169;41.804;12.596;2022-12-18T09:03:01;12.50;99.90
37281;DHT22;23169;41.804;12.596;2022-12-18T09:05:29;12.80;99.90
37281;DHT22;23169;41.804;12.596;2022-12-18T09:07:57;13.00;99.90
37281;DHT22;23169;41.804;12.596;2022-12-18T09:10:24;13.20;99.90
37281;DHT22;23169;41.804;12.596;2022-12-18T09:12:51;13.30;93.40
37281;DHT22;23169;41.804;12.596;2022-12-18T09:15:18;13.40;73.10
37281;DHT22;23169;41.804;12.596;2022-12-18T09:17:45;13.40;44.30
37281;DHT22;23169;41.804;12.596;2022-12-18T09:20:13;13.50;35.90
37281;DHT22;23169;41.804;12.596;2022-12-18T09:22:40;13.50;14.70
37281;DHT22;23169;41.804;12.596;2022-12-18T09:25:07;13.50;1.00
37281;DHT22;23169;41.804;12.596;2022-12-18T09:27:37;13.60;1.00
37281;DHT22;23169;41.804;12.596;2022-12-18T09:30:04;13.60;1.00
37281;DHT22;23169;41.804;12.596;2022-12-18T09:32:32;13.70;1.00
37281;DHT22;23169;41.804;12.596;2022-12-18T09:35:00;13.70;1.00
37281;DHT22;23169;41.804;12.596;2022-12-18T09:37:28;13.80;1.00
37281;DHT22;23169;41.804;12.596;2022-12-18T09:39:55;13.90;1.00
37281;DHT22;23169;41.804;12.596;2022-12-18T09:42:23;13.90;1.00
37281;DHT22;23169;41.804;12.596;2022-12-18T09:44:51;13.90;1.00
37281;DHT22;23169;41.804;12.596;2022-12-18T09:47:27;14.10;1.00
37281;DHT22;23169;41.804;12.596;2022-12-18T09:49:56;14.10;1.00
37281;DHT22;23169;41.804;12.596;2022-12-18T09:52:37;14.10;1.00
37281;DHT22;23169;41.804;12.596;2022-12-18T09:55:11;14.20;1.00
37281;DHT22;23169;41.804;12.596;2022-12-18T09:57:42;14.30;1.00
37281;DHT22;23169;41.804;12.596;2022-12-18T10:00:16;14.30;1.00
37281;DHT22;23169;41.804;12.596;2022-12-18T10:02:45;14.40;1.00
37281;DHT22;23169;41.804;12.596;2022-12-18T10:05:14;14.50;1.00
37281;DHT22;23169;41.804;12.596;2022-12-18T10:10:51;14.70;1.00
37281;DHT22;23169;41.804;12.596;2022-12-18T10:21:17;15.30;99.90
37281;DHT22;23169;41.804;12.596;2022-12-18T10:26:23;15.60;99.90
37281;DHT22;23169;41.804;12.596;2022-12-18T10:28:51;15.70;99.90
37281;DHT22;23169;41.804;12.596;2022-12-18T10:31:19;15.70;99.90
37281;DHT22;23169;41.804;12.596;2022-12-18T10:33:47;15.80;99.90
37281;DHT22;23169;41.804;12.596;2022-12-18T10:36:14;15.90;99.90
37281;DHT22;23169;41.804;12.596;2022-12-18T10:38:41;16.00;99.90
37281;DHT22;23169;41.804;12.596;2022-12-18T10:43:46;16.20;99.90
37281;DHT22;23169;41.804;12.596;2022-12-18T10:46:19;16.20;99.90
37281;DHT22;23169;41.804;12.596;2022-12-18T10:56:22;16.50;99.90
37281;DHT22;23169;41.804;12.596;2022-12-18T10:59:00;16.60;99.90
37281;DHT22;23169;41.804;12.596;2022-12-18T11:01:28;16.60;99.90
37281;DHT22;23169;41.804;12.596;2022-12-18T11:03:59;16.70;99.90
37281;DHT22;23169;41.804;12.596;2022-12-18T11:06:26;16.80;99.90
37281;DHT22;23169;41.804;12.596;2022-12-18T11:09:01;16.90;99.90
37281;DHT22;23169;41.804;12.596;2022-12-18T11:11:29;16.90;99.90
37281;DHT22;23169;41.804;12.596;2022-12-18T11:16:27;17.00;99.90
37281;DHT22;23169;41.804;12.596;2022-12-18T11:19:12;17.00;99.90
37281;DHT22;23169;41.804;12.596;2022-12-18T11:21:41;17.00;99.90
37281;DHT22;23169;41.804;12.596;2022-12-18T11:24:17;17.10;99.90
37281;DHT22;23169;41.804;12.596;2022-12-18T11:26:46;17.20;99.90
37281;DHT22;23169;41.804;12.596;2022-12-18T11:29:17;17.30;99.90
37281;DHT22;23169;41.804;12.596;2022-12-18T11:31:44;17.40;99.90
37281;DHT22;23169;41.804;12.596;2022-12-18T11:36:48;17.40;99.90
37281;DHT22;23169;41.804;12.596;2022-12-18T11:39:34;17.60;99.90
37281;DHT22;23169;41.804;12.596;2022-12-18T11:42:25;17.70;99.90
37281;DHT22;23169;41.804;12.596;2022-12-18T11:44:52;17.90;99.90
37281;DHT22;23169;41.804;12.596;2022-12-18T11:49:59;18.50;99.90
37281;DHT22;23169;41.804;12.596;2022-12-18T11:52:32;19.00;99.90
37281;DHT22;23169;41.804;12.596;2022-12-18T11:55:01;19.30;99.90
37281;DHT22;23169;41.804;12.596;2022-12-18T12:02:46;20.20;99.90
37281;DHT22;23169;41.804;12.596;2022-12-18T12:18:01;20.80;99.90
37281;DHT22;23169;41.804;12.596;2022-12-18T12:26:15;20.80;99.90
37281;DHT22;23169;41.804;12.596;2022-12-18T12:28:49;20.60;99.90
37281;DHT22;23169;41.804;12.596;2022-12-18T12:36:21;20.10;99.90
37281;DHT22;23169;41.804;12.596;2022-12-18T12:38:57;19.90;99.90
37281;DHT22;23169;41.804;12.596;2022-12-18T12:41:27;19.80;99.90
37281;DHT22;23169;41.804;12.596;2022-12-18T12:44:29;19.80;99.90
37281;DHT22;23169;41.804;12.596;2022-12-18T12:46:59;19.70;99.90
37281;DHT22;23169;41.804;12.596;2022-12-18T12:49:28;19.80;99.90
37281;DHT22;23169;41.804;12.596;2022-12-18T12:52:04;19.80;99.90
37281;DHT22;23169;41.804;12.596;2022-12-18T12:54:32;20.40;99.90
37281;DHT22;23169;41.804;12.596;2022-12-18T12:57:06;19.70;99.90
37281;DHT22;23169;41.804;12.596;2022-12-18T12:59:49;19.70;99.90
37281;DHT22;23169;41.804;12.596;2022-12-18T13:05:00;19.70;99.90
37281;DHT22;23169;41.804;12.596;2022-12-18T13:07:32;19.50;99.90
37281;DHT22;23169;41.804;12.596;2022-12-18T13:23:20;19.30;99.90
37281;DHT22;23169;41.804;12.596;2022-12-18T13:31:04;19.40;99.90
37281;DHT22;23169;41.804;12.596;2022-12-18T13:41:35;22.20;99.90
37281;DHT22;23169;41.804;12.596;2022-12-18T13:46:49;23.20;99.90
37281;DHT22;23169;41.804;12.596;2022-12-18T13:52:03;23.70;99.90
37281;DHT22;23169;41.804;12.596;2022-12-18T13:54:40;23.70;99.90
37281;DHT22;23169;41.804;12.596;2022-12-18T13:59:54;23.30;99.90
37281;DHT22;23169;41.804;12.596;2022-12-18T14:02:23;22.70;99.90
37281;DHT22;23169;41.804;12.596;2022-12-18T14:04:51;22.30;99.90
37281;DHT22;23169;41.804;12.596;2022-12-18T14:09:53;21.30;99.90
37281;DHT22;23169;41.804;12.596;2022-12-18T14:12:27;20.70;99.90
37281;DHT22;23169;41.804;12.596;2022-12-18T14:18:03;19.80;99.90
37281;DHT22;23169;41.804;12.596;2022-12-18T14:20:39;19.60;99.90
37281;DHT22;23169;41.804;12.596;2022-12-18T14:25:54;20.30;99.90
37281;DHT22;23169;41.804;12.596;2022-12-18T14:28:21;21.10;99.90
37281;DHT22;23169;41.804;12.596;2022-12-18T14:30:49;21.60;99.90
37281;DHT22;23169;41.804;12.596;2022-12-18T14:33:21;21.90;99.90
37281;DHT22;23169;41.804;12.596;2022-12-18T14:38:26;22.40;99.90
37281;DHT22;23169;41.804;12.596;2022-12-18T14:40:57;22.30;99.90
37281;DHT22;23169;41.804;12.596;2022-12-18T14:43:31;22.10;99.90
37281;DHT22;23169;41.804;12.596;2022-12-18T14:45:58;21.90;99.90
37281;DHT22;23169;41.804;12.596;2022-12-18T14:48:32;21.20;99.90
37281;DHT22;23169;41.804;12.596;2022-12-18T14:51:02;20.30;99.90
37281;DHT22;23169;41.804;12.596;2022-12-18T14:53:37;19.50;99.90
37281;DHT22;23169;41.804;12.596;2022-12-18T14:56:12;18.80;99.90
37281;DHT22;23169;41.804;12.596;2022-12-18T14:58:44;18.20;99.90
37281;DHT22;23169;41.804;12.596;2022-12-18T15:01:19;17.70;99.90
37281;DHT22;23169;41.804;12.596;2022-12-18T15:03:46;17.40;99.90
37281;DHT22;23169;41.804;12.596;2022-12-18T15:06:17;17.20;99.90
37281;DHT22;23169;41.804;12.596;2022-12-18T15:08:49;17.00;99.90
37281;DHT22;23169;41.804;12.596;2022-12-18T15:11:26;16.90;99.90
37281;DHT22;23169;41.804;12.596;2022-12-18T15:13:54;17.80;99.90
37281;DHT22;23169;41.804;12.596;2022-12-18T15:16:21;16.60;99.90
37281;DHT22;23169;41.804;12.596;2022-12-18T15:18:49;16.50;99.90
37281;DHT22;23169;41.804;12.596;2022-12-18T15:21:17;16.40;99.90
37281;DHT22;23169;41.804;12.596;2022-12-18T15:23:48;16.30;99.90
37281;DHT22;23169;41.804;12.596;2022-12-18T15:26:17;18.20;99.90
37281;DHT22;23169;41.804;12.596;2022-12-18T15:33:41;16.60;99.90
37281;DHT22;23169;41.804;12.596;2022-12-18T15:36:09;16.70;99.90
37281;DHT22;23169;41.804;12.596;2022-12-18T15:38:37;16.80;99.90
37281;DHT22;23169;41.804;12.596;2022-12-18T15:41:04;16.70;99.90
37281;DHT22;23169;41.804;12.596;2022-12-18T15:43:38;16.50;99.90
37281;DHT22;23169;41.804;12.596;2022-12-18T15:46:06;16.40;99.90
37281;DHT22;23169;41.804;12.596;2022-12-18T15:48:43;16.20;99.90
37281;DHT22;23169;41.804;12.596;2022-12-18T15:51:19;16.00;99.90
37281;DHT22;23169;41.804;12.596;2022-12-18T15:53:50;15.90;99.90
37281;DHT22;23169;41.804;12.596;2022-12-18T15:56:19;15.90;99.90
37281;DHT22;23169;41.804;12.596;2022-12-18T15:59:12;15.80;99.90
37281;DHT22;23169;41.804;12.596;2022-12-18T16:01:41;15.70;99.90
37281;DHT22;23169;41.804;12.596;2022-12-18T16:04:12;15.70;99.90
37281;DHT22;23169;41.804;12.596;2022-12-18T16:06:40;15.70;99.90
37281;DHT22;23169;41.804;12.596;2022-12-18T16:09:08;15.70;99.90
37281;DHT22;23169;41.804;12.596;2022-12-18T16:11:36;16.20;99.90
37281;DHT22;23169;41.804;12.596;2022-12-18T16:16:45;15.80;99.90
37281;DHT22;23169;41.804;12.596;2022-12-18T16:19:13;15.70;99.90
37281;DHT22;23169;41.804;12.596;2022-12-18T16:21:40;15.70;99.90
37281;DHT22;23169;41.804;12.596;2022-12-18T16:24:15;15.70;99.90
37281;DHT22;23169;41.804;12.596;2022-12-18T16:26:43;15.70;99.90
37281;DHT22;23169;41.804;12.596;2022-12-18T16:29:11;15.60;99.90
37281;DHT22;23169;41.804;12.596;2022-12-18T16:31:38;15.60;99.90
37281;DHT22;23169;41.804;12.596;2022-12-18T16:34:25;15.50;99.90
37281;DHT22;23169;41.804;12.596;2022-12-18T16:36:55;15.40;99.90
37281;DHT22;23169;41.804;12.596;2022-12-18T16:39:23;15.40;99.90
37281;DHT22;23169;41.804;12.596;2022-12-18T16:41:50;15.30;99.90
37281;DHT22;23169;41.804;12.596;2022-12-18T16:44:18;15.30;99.90
37281;DHT22;23169;41.804;12.596;2022-12-18T16:46:45;15.20;99.90
37281;DHT22;23169;41.804;12.596;2022-12-18T16:49:16;15.20;99.90
37281;DHT22;23169;41.804;12.596;2022-12-18T16:51:47;15.10;99.90
37281;DHT22;23169;41.804;12.596;2022-12-18T16:54:14;15.00;99.90
37281;DHT22;23169;41.804;12.596;2022-12-18T16:56:42;15.00;99.90
37281;DHT22;23169;41.804;12.596;2022-12-18T16:59:09;14.90;99.90
37281;DHT22;23169;41.804;12.596;2022-12-18T17:01:37;14.80;99.90
37281;DHT22;23169;41.804;12.596;2022-12-18T17:04:05;14.70;99.90
37281;DHT22;23169;41.804;12.596;2022-12-18T17:06:33;14.70;99.90
37281;DHT22;23169;41.804;12.596;2022-12-18T17:09:02;14.60;99.90
37281;DHT22;23169;41.804;12.596;2022-12-18T17:11:30;14.60;99.90
37281;DHT22;23169;41.804;12.596;2022-12-18T17:13:58;14.60;99.90
37281;DHT22;23169;41.804;12.596;2022-12-18T17:16:25;14.50;99.90
37281;DHT22;23169;41.804;12.596;2022-12-18T17:18:52;14.30;99.90
37281;DHT22;23169;41.804;12.596;2022-12-18T17:21:20;14.10;99.90
37281;DHT22;23169;41.804;12.596;2022-12-18T17:23:47;13.90;99.90
37281;DHT22;23169;41.804;12.596;2022-12-18T17:26:14;13.80;99.90
37281;DHT22;23169;41.804;12.596;2022-12-18T17:28:42;13.80;99.90
37281;DHT22;23169;41.804;12.596;2022-12-18T17:31:10;13.80;99.90
37281;DHT22;23169;41.804;12.596;2022-12-18T17:33:38;13.90;99.90
37281;DHT22;23169;41.804;12.596;2022-12-18T17:36:05;13.90;99.90
37281;DHT22;23169;41.804;12.596;2022-12-18T17:38:32;13.90;99.90
37281;DHT22;23169;41.804;12.596;2022-12-18T17:41:04;13.90;99.90
37281;DHT22;23169;41.804;12.596;2022-12-18T17:43:32;13.90;99.90
37281;DHT22;23169;41.804;12.596;2022-12-18T17:46:01;13.80;99.90
37281;DHT22;23169;41.804;12.596;2022-12-18T17:48:30;13.80;99.90
37281;DHT22;23169;41.804;12.596;2022-12-18T17:51:04;13.70;99.90
37281;DHT22;23169;41.804;12.596;2022-12-18T17:53:32;13.70;99.90